This is the latest recevied weather packets stored in our database for station/object LRSB. If no packets are shown the sender has not sent any weather packets the latest 10 day(s).
| Time | Temp. | Humidity | Pressure | Rain* | Wind** | Luminosity | Snow |
|---|---|---|---|---|---|---|---|
| 1777630692 | 11.11° C | 38% | 1024 hPa | - | - | - | - |
| 1777629791 | 11.11° C | 38% | 1024 hPa | - | - | - | - |
| 1777628891 | 11.11° C | 41% | 1025 hPa | - | - | - | - |
| 1777627991 | 11.11° C | 41% | 1025 hPa | - | - | - | - |
| 1777627091 | 10° C | 40% | 1025 hPa | - | - | - | - |
| 1777626191 | 10° C | 40% | 1025 hPa | - | - | - | - |
| 1777625291 | 8.89° C | 40% | 1025 hPa | - | - | - | - |
| 1777624391 | 8.89° C | 40% | 1025 hPa | - | - | - | - |
| 1777623509 | 8.89° C | 43% | 1025 hPa | - | - | - | - |
| 1777622591 | 8.89° C | 43% | 1025 hPa | - | - | - | - |
| 1777621691 | 7.78° C | 50% | 1025 hPa | - | - | - | - |
| 1777620791 | 7.78° C | 50% | 1025 hPa | - | - | - | - |
| 1777619891 | 7.22° C | 61% | 1025 hPa | - | - | - | - |
| 1777618991 | 7.22° C | 61% | 1025 hPa | - | - | - | - |
| 1777618095 | 6.11° C | 61% | 1025 hPa | - | - | - | - |
| 1777617192 | 6.11° C | 61% | 1025 hPa | - | - | - | - |
| 1777616293 | 3.89° C | 81% | 1025 hPa | - | - | - | - |
| 1777615391 | 3.89° C | 81% | 1025 hPa | - | - | - | - |
| 1777614491 | 2.78° C | 81% | 1025 hPa | - | - | - | - |
| 1777613591 | 2.78° C | 81% | 1025 hPa | - | - | - | - |
| 1777612692 | 2.22° C | 87% | 1025 hPa | - | - | - | - |
| 1777611791 | 2.22° C | 87% | 1025 hPa | - | - | - | - |
| 1777610891 | 0° C | 93% | 1025 hPa | - | - | - | - |
| 1777609991 | 0° C | 93% | 1025 hPa | - | - | - | - |
| 1777609091 | -1.11° C | 93% | 1025 hPa | - | - | - | - |
* Rain since midnight (hover to see other rain measurements)
** Current wind speed in m/s (hover to see current wind gust speed)